Main page
METAR-TAF:

METAR-TAF

Airports :

Tunis, Tunisia

Tunis–Carthage International Airport

latitude: 36-50N, longitude: 010-14E, elevation: 3 m

Current weather observation

The report was made 28 minutes ago, at 11:30 UTC
Wind 7 kt from variable directions
Temperature 25°C
Humidity 61%
Pressure 1020 hPa
Visibility 10 km or more
Few clouds at a height of 2300 ft

METAR: DTTA 221130Z VRB07KT 9999 FEW023 25/17 Q1020 NOSIG

Time: 12:58 (11:58 UTC)

Forecast

The report was made 54 minutes ago, at 11:04 UTC
Forecast valid from 22 at 12 UTC to 23 at 12 UTC
Wind 7 kt from the West
Visibility 10 km or more
Scattered clouds at a height of 2300 ft
Temporary
from 22 at 12 UTC to 22 at 18 UTC
Visibility: 3000 m
Few clouds at a height of 2600 ft, Cumulonimbus.
light rain
Becoming
from 22 at 18 UTC to 22 at 20 UTC
Wind 14 kt from the North/Northwest

TAF: DTTA 221104Z 2212/2312 27007KT 9999 SCT023 TEMPO 2212/2218 3000 -RA FEW026CB BECMG 2218/2220 33014KT

Weather observations and forecasts of more than 4000 airports (METAR and TAF reports).

The available stations are represented by yellow and red dots on the map.

Hover mouse over dot to see the name of the station.

Then click to see weather observations and forecasts.

To change the map : click on the green buttons with a black cross to zoom in, on the green button with a dash to zoom out, or on the green arrows for adjacent maps.


METAR-TAF: